Merna, Nebraska
Current Conditions -  °F | °C
As of 5:53 AM on Wednesday 28 Jan 2015 (Local Time) from KBBW Reporting Station
Clear Clear  
Wind Chill: 49°   Ceiling: Unl
Heat Index: 49°   Visibility: 10mi
Dew Point: 30°   Wind: 3mph
Humidity: 48%   Direction: 290°WNW
Pressure: 29.8"   Gusts: NA
Location:  41.48°N, 99.76°W
Report Text: KBBW 281153Z AUTO 29003KT 10SM CLR 09/M01 A2980 RMK AO2 SLP086 T00941011 10094 21011 58014
Loading
Personal Weather Stations






























Interactive Weather Map New forecast layout! Learn more

10-Day Weather Forecast

Advertisements
Track Severe Weather on mobile